sensor_id;sensor_type;location;lat;lon;timestamp;temperature;humidity
47174;DHT22;36730;49.036;9.094;2023-03-16T00:00:48;21.20;47.40
47174;DHT22;36730;49.036;9.094;2023-03-16T00:03:14;21.20;46.80
47174;DHT22;36730;49.036;9.094;2023-03-16T00:05:47;21.20;47.00
47174;DHT22;36730;49.036;9.094;2023-03-16T00:08:13;21.20;46.90
47174;DHT22;36730;49.036;9.094;2023-03-16T00:10:38;21.20;46.90
47174;DHT22;36730;49.036;9.094;2023-03-16T00:13:04;21.20;47.40
47174;DHT22;36730;49.036;9.094;2023-03-16T00:15:29;21.10;46.80
47174;DHT22;36730;49.036;9.094;2023-03-16T00:17:55;21.10;46.80
47174;DHT22;36730;49.036;9.094;2023-03-16T00:20:20;21.10;46.90
47174;DHT22;36730;49.036;9.094;2023-03-16T00:22:47;21.10;46.60
47174;DHT22;36730;49.036;9.094;2023-03-16T00:25:13;21.10;46.50
47174;DHT22;36730;49.036;9.094;2023-03-16T00:27:38;21.10;46.80
47174;DHT22;36730;49.036;9.094;2023-03-16T00:30:04;21.00;46.70
47174;DHT22;36730;49.036;9.094;2023-03-16T00:32:31;21.00;46.50
47174;DHT22;36730;49.036;9.094;2023-03-16T00:34:56;21.00;46.60
47174;DHT22;36730;49.036;9.094;2023-03-16T00:37:23;21.00;46.70
47174;DHT22;36730;49.036;9.094;2023-03-16T00:39:49;21.10;46.80
47174;DHT22;36730;49.036;9.094;2023-03-16T00:42:15;21.00;46.80
47174;DHT22;36730;49.036;9.094;2023-03-16T00:44:40;21.00;47.20
47174;DHT22;36730;49.036;9.094;2023-03-16T00:47:06;21.00;46.50
47174;DHT22;36730;49.036;9.094;2023-03-16T00:49:32;21.00;46.70
47174;DHT22;36730;49.036;9.094;2023-03-16T00:52:02;21.00;46.60
47174;DHT22;36730;49.036;9.094;2023-03-16T00:54:29;21.00;46.60
47174;DHT22;36730;49.036;9.094;2023-03-16T00:56:57;20.90;46.30
47174;DHT22;36730;49.036;9.094;2023-03-16T00:59:23;21.00;46.50
47174;DHT22;36730;49.036;9.094;2023-03-16T01:01:50;20.90;46.30
47174;DHT22;36730;49.036;9.094;2023-03-16T01:04:16;20.90;46.40
47174;DHT22;36730;49.036;9.094;2023-03-16T01:06:42;20.90;46.40
47174;DHT22;36730;49.036;9.094;2023-03-16T01:09:07;20.90;46.90
47174;DHT22;36730;49.036;9.094;2023-03-16T01:11:33;20.90;46.30
47174;DHT22;36730;49.036;9.094;2023-03-16T01:13:59;20.90;46.10
47174;DHT22;36730;49.036;9.094;2023-03-16T01:16:25;20.90;46.10
47174;DHT22;36730;49.036;9.094;2023-03-16T01:18:50;20.90;46.20
47174;DHT22;36730;49.036;9.094;2023-03-16T01:21:16;20.90;45.90
47174;DHT22;36730;49.036;9.094;2023-03-16T01:23:42;20.90;45.90
47174;DHT22;36730;49.036;9.094;2023-03-16T01:26:08;20.80;45.60
47174;DHT22;36730;49.036;9.094;2023-03-16T01:28:34;20.90;45.90
47174;DHT22;36730;49.036;9.094;2023-03-16T01:31:02;20.80;45.70
47174;DHT22;36730;49.036;9.094;2023-03-16T01:33:28;20.80;45.40
47174;DHT22;36730;49.036;9.094;2023-03-16T01:35:54;20.80;45.50
47174;DHT22;36730;49.036;9.094;2023-03-16T01:38:20;20.80;45.50
47174;DHT22;36730;49.036;9.094;2023-03-16T01:40:46;20.80;45.30
47174;DHT22;36730;49.036;9.094;2023-03-16T01:43:15;20.70;45.20
47174;DHT22;36730;49.036;9.094;2023-03-16T01:48:21;20.70;45.40
47174;DHT22;36730;49.036;9.094;2023-03-16T01:50:48;20.70;45.20
47174;DHT22;36730;49.036;9.094;2023-03-16T01:53:16;20.80;45.20
47174;DHT22;36730;49.036;9.094;2023-03-16T01:55:42;20.70;45.00
47174;DHT22;36730;49.036;9.094;2023-03-16T01:58:07;20.70;45.00
47174;DHT22;36730;49.036;9.094;2023-03-16T02:00:33;20.70;45.10
47174;DHT22;36730;49.036;9.094;2023-03-16T02:03:01;20.70;45.00
47174;DHT22;36730;49.036;9.094;2023-03-16T02:05:34;20.70;45.00
47174;DHT22;36730;49.036;9.094;2023-03-16T02:08:01;20.60;44.90
47174;DHT22;36730;49.036;9.094;2023-03-16T02:10:28;20.60;44.80
47174;DHT22;36730;49.036;9.094;2023-03-16T02:12:54;20.60;44.90
47174;DHT22;36730;49.036;9.094;2023-03-16T02:15:19;20.60;44.90
47174;DHT22;36730;49.036;9.094;2023-03-16T02:17:45;20.60;44.30
47174;DHT22;36730;49.036;9.094;2023-03-16T02:22:38;20.60;44.60
47174;DHT22;36730;49.036;9.094;2023-03-16T02:25:06;20.60;44.70
47174;DHT22;36730;49.036;9.094;2023-03-16T02:30:07;20.60;44.50
47174;DHT22;36730;49.036;9.094;2023-03-16T02:32:35;20.50;44.50
47174;DHT22;36730;49.036;9.094;2023-03-16T02:35:02;20.50;44.50
47174;DHT22;36730;49.036;9.094;2023-03-16T02:37:28;20.50;44.50
47174;DHT22;36730;49.036;9.094;2023-03-16T02:39:53;20.50;44.80
47174;DHT22;36730;49.036;9.094;2023-03-16T02:42:20;20.50;44.60
47174;DHT22;36730;49.036;9.094;2023-03-16T02:44:47;20.50;44.50
47174;DHT22;36730;49.036;9.094;2023-03-16T02:49:49;20.50;44.30
47174;DHT22;36730;49.036;9.094;2023-03-16T02:52:15;20.50;44.40
47174;DHT22;36730;49.036;9.094;2023-03-16T02:54:40;20.50;44.50
47174;DHT22;36730;49.036;9.094;2023-03-16T02:57:06;20.50;44.30
47174;DHT22;36730;49.036;9.094;2023-03-16T02:59:31;20.50;44.30
47174;DHT22;36730;49.036;9.094;2023-03-16T03:01:57;20.40;44.40
47174;DHT22;36730;49.036;9.094;2023-03-16T03:04:22;20.40;44.40
47174;DHT22;36730;49.036;9.094;2023-03-16T03:06:49;20.40;44.30
47174;DHT22;36730;49.036;9.094;2023-03-16T03:09:15;20.40;44.30
47174;DHT22;36730;49.036;9.094;2023-03-16T03:11:42;20.40;44.60
47174;DHT22;36730;49.036;9.094;2023-03-16T03:14:08;20.40;44.50
47174;DHT22;36730;49.036;9.094;2023-03-16T03:16:33;20.40;44.40
47174;DHT22;36730;49.036;9.094;2023-03-16T03:18:59;20.40;44.50
47174;DHT22;36730;49.036;9.094;2023-03-16T03:21:24;20.40;44.40
47174;DHT22;36730;49.036;9.094;2023-03-16T03:23:50;20.40;44.30
47174;DHT22;36730;49.036;9.094;2023-03-16T03:26:16;20.40;44.40
47174;DHT22;36730;49.036;9.094;2023-03-16T03:28:41;20.40;44.40
47174;DHT22;36730;49.036;9.094;2023-03-16T03:31:11;20.40;44.40
47174;DHT22;36730;49.036;9.094;2023-03-16T03:33:37;20.30;44.40
47174;DHT22;36730;49.036;9.094;2023-03-16T03:36:02;20.30;44.80
47174;DHT22;36730;49.036;9.094;2023-03-16T03:38:28;20.30;44.50
47174;DHT22;36730;49.036;9.094;2023-03-16T03:40:53;20.30;44.60
47174;DHT22;36730;49.036;9.094;2023-03-16T03:43:23;20.30;44.40
47174;DHT22;36730;49.036;9.094;2023-03-16T03:45:49;20.30;44.40
47174;DHT22;36730;49.036;9.094;2023-03-16T03:48:19;20.30;44.50
47174;DHT22;36730;49.036;9.094;2023-03-16T03:50:44;20.30;44.40
47174;DHT22;36730;49.036;9.094;2023-03-16T03:53:10;20.30;44.30
47174;DHT22;36730;49.036;9.094;2023-03-16T03:55:35;20.30;44.40
47174;DHT22;36730;49.036;9.094;2023-03-16T03:58:01;20.30;44.40
47174;DHT22;36730;49.036;9.094;2023-03-16T04:00:26;20.30;44.40
47174;DHT22;36730;49.036;9.094;2023-03-16T04:02:52;20.30;44.40
47174;DHT22;36730;49.036;9.094;2023-03-16T04:05:17;20.20;44.50
47174;DHT22;36730;49.036;9.094;2023-03-16T04:07:43;20.30;44.50
47174;DHT22;36730;49.036;9.094;2023-03-16T04:10:08;20.30;44.50
47174;DHT22;36730;49.036;9.094;2023-03-16T04:12:34;20.30;44.40
47174;DHT22;36730;49.036;9.094;2023-03-16T04:14:59;20.30;44.50
47174;DHT22;36730;49.036;9.094;2023-03-16T04:17:25;20.30;44.50
47174;DHT22;36730;49.036;9.094;2023-03-16T04:19:50;20.30;44.40
47174;DHT22;36730;49.036;9.094;2023-03-16T04:22:16;20.30;44.70
47174;DHT22;36730;49.036;9.094;2023-03-16T04:24:42;20.30;44.60
47174;DHT22;36730;49.036;9.094;2023-03-16T04:27:08;20.30;44.50
47174;DHT22;36730;49.036;9.094;2023-03-16T04:29:34;20.30;44.60
47174;DHT22;36730;49.036;9.094;2023-03-16T04:31:59;20.30;44.50
47174;DHT22;36730;49.036;9.094;2023-03-16T04:34:25;20.30;44.90
47174;DHT22;36730;49.036;9.094;2023-03-16T04:36:51;20.30;44.80
47174;DHT22;36730;49.036;9.094;2023-03-16T04:39:17;20.30;44.80
47174;DHT22;36730;49.036;9.094;2023-03-16T04:41:43;20.30;44.80
47174;DHT22;36730;49.036;9.094;2023-03-16T04:44:08;20.40;44.90
47174;DHT22;36730;49.036;9.094;2023-03-16T04:46:34;20.40;44.80
47174;DHT22;36730;49.036;9.094;2023-03-16T04:49:00;20.40;44.70
47174;DHT22;36730;49.036;9.094;2023-03-16T04:51:25;20.50;44.70
47174;DHT22;36730;49.036;9.094;2023-03-16T04:53:51;20.50;44.60
47174;DHT22;36730;49.036;9.094;2023-03-16T04:56:17;20.50;44.60
47174;DHT22;36730;49.036;9.094;2023-03-16T04:58:43;20.50;44.60
47174;DHT22;36730;49.036;9.094;2023-03-16T05:01:08;20.50;44.50
47174;DHT22;36730;49.036;9.094;2023-03-16T05:03:34;20.50;44.60
47174;DHT22;36730;49.036;9.094;2023-03-16T05:05:59;20.60;44.70
47174;DHT22;36730;49.036;9.094;2023-03-16T05:08:25;20.60;45.50
47174;DHT22;36730;49.036;9.094;2023-03-16T05:10:50;20.60;44.70
47174;DHT22;36730;49.036;9.094;2023-03-16T05:13:20;20.60;44.40
47174;DHT22;36730;49.036;9.094;2023-03-16T05:15:45;20.60;44.80
47174;DHT22;36730;49.036;9.094;2023-03-16T05:18:11;20.70;44.60
47174;DHT22;36730;49.036;9.094;2023-03-16T05:20:36;20.70;44.60
47174;DHT22;36730;49.036;9.094;2023-03-16T05:23:02;20.70;44.60
47174;DHT22;36730;49.036;9.094;2023-03-16T05:25:27;20.70;44.70
47174;DHT22;36730;49.036;9.094;2023-03-16T05:27:52;20.70;44.60
47174;DHT22;36730;49.036;9.094;2023-03-16T05:30:18;20.70;45.00
47174;DHT22;36730;49.036;9.094;2023-03-16T05:32:44;20.70;45.00
47174;DHT22;36730;49.036;9.094;2023-03-16T05:35:10;20.80;44.90
47174;DHT22;36730;49.036;9.094;2023-03-16T05:37:38;20.80;45.40
47174;DHT22;36730;49.036;9.094;2023-03-16T05:40:04;20.70;45.20
47174;DHT22;36730;49.036;9.094;2023-03-16T05:42:36;20.80;45.40
47174;DHT22;36730;49.036;9.094;2023-03-16T05:45:02;20.80;45.40
47174;DHT22;36730;49.036;9.094;2023-03-16T05:47:27;20.80;45.40
47174;DHT22;36730;49.036;9.094;2023-03-16T05:49:53;20.80;46.10
47174;DHT22;36730;49.036;9.094;2023-03-16T05:52:18;20.80;46.60
47174;DHT22;36730;49.036;9.094;2023-03-16T05:54:44;20.90;46.70
47174;DHT22;36730;49.036;9.094;2023-03-16T05:57:09;20.90;46.90
47174;DHT22;36730;49.036;9.094;2023-03-16T05:59:35;20.90;47.00
47174;DHT22;36730;49.036;9.094;2023-03-16T06:02:00;20.90;47.00
47174;DHT22;36730;49.036;9.094;2023-03-16T06:04:26;20.90;47.10
47174;DHT22;36730;49.036;9.094;2023-03-16T06:06:51;20.90;46.80
47174;DHT22;36730;49.036;9.094;2023-03-16T06:09:17;21.00;47.10
47174;DHT22;36730;49.036;9.094;2023-03-16T06:11:42;21.00;47.50
47174;DHT22;36730;49.036;9.094;2023-03-16T06:14:08;21.00;47.40
47174;DHT22;36730;49.036;9.094;2023-03-16T06:16:33;21.00;47.30
47174;DHT22;36730;49.036;9.094;2023-03-16T06:18:59;21.00;47.30
47174;DHT22;36730;49.036;9.094;2023-03-16T06:21:25;21.00;47.10
47174;DHT22;36730;49.036;9.094;2023-03-16T06:23:50;21.00;47.50
47174;DHT22;36730;49.036;9.094;2023-03-16T06:26:16;21.00;47.90
47174;DHT22;36730;49.036;9.094;2023-03-16T06:28:41;21.00;48.00
47174;DHT22;36730;49.036;9.094;2023-03-16T06:31:06;21.10;48.00
47174;DHT22;36730;49.036;9.094;2023-03-16T06:33:32;21.00;48.20
47174;DHT22;36730;49.036;9.094;2023-03-16T06:35:57;21.10;48.30
47174;DHT22;36730;49.036;9.094;2023-03-16T06:38:23;21.10;48.40
47174;DHT22;36730;49.036;9.094;2023-03-16T06:40:51;21.10;48.80
47174;DHT22;36730;49.036;9.094;2023-03-16T06:43:17;21.10;48.60
47174;DHT22;36730;49.036;9.094;2023-03-16T06:45:42;21.10;48.80
47174;DHT22;36730;49.036;9.094;2023-03-16T06:48:08;21.10;48.70
47174;DHT22;36730;49.036;9.094;2023-03-16T06:50:34;21.10;49.10
47174;DHT22;36730;49.036;9.094;2023-03-16T06:53:00;21.10;48.20
47174;DHT22;36730;49.036;9.094;2023-03-16T06:55:25;21.10;49.20
47174;DHT22;36730;49.036;9.094;2023-03-16T06:57:50;21.20;50.00
47174;DHT22;36730;49.036;9.094;2023-03-16T07:00:16;21.20;49.70
47174;DHT22;36730;49.036;9.094;2023-03-16T07:02:41;21.20;49.80
47174;DHT22;36730;49.036;9.094;2023-03-16T07:05:08;21.30;49.70
47174;DHT22;36730;49.036;9.094;2023-03-16T07:07:38;21.20;49.60
47174;DHT22;36730;49.036;9.094;2023-03-16T07:10:03;21.30;49.70
47174;DHT22;36730;49.036;9.094;2023-03-16T07:12:29;21.30;50.20
47174;DHT22;36730;49.036;9.094;2023-03-16T07:14:54;21.30;50.30
47174;DHT22;36730;49.036;9.094;2023-03-16T07:17:20;21.30;50.70
47174;DHT22;36730;49.036;9.094;2023-03-16T07:19:45;21.30;50.70
47174;DHT22;36730;49.036;9.094;2023-03-16T07:22:11;21.30;50.50
47174;DHT22;36730;49.036;9.094;2023-03-16T07:24:36;21.40;50.60
47174;DHT22;36730;49.036;9.094;2023-03-16T07:27:02;21.40;50.10
47174;DHT22;36730;49.036;9.094;2023-03-16T07:29:27;21.40;50.40
47174;DHT22;36730;49.036;9.094;2023-03-16T07:31:53;21.40;50.40
47174;DHT22;36730;49.036;9.094;2023-03-16T07:34:19;21.40;50.80
47174;DHT22;36730;49.036;9.094;2023-03-16T07:36:45;21.50;50.80
47174;DHT22;36730;49.036;9.094;2023-03-16T07:39:13;21.50;51.10
47174;DHT22;36730;49.036;9.094;2023-03-16T07:41:38;21.50;51.70
47174;DHT22;36730;49.036;9.094;2023-03-16T07:44:04;21.50;50.90
47174;DHT22;36730;49.036;9.094;2023-03-16T07:46:30;21.50;51.50
47174;DHT22;36730;49.036;9.094;2023-03-16T07:48:56;21.60;52.30
47174;DHT22;36730;49.036;9.094;2023-03-16T07:51:22;21.50;51.90
47174;DHT22;36730;49.036;9.094;2023-03-16T07:53:47;21.60;52.10
47174;DHT22;36730;49.036;9.094;2023-03-16T07:56:13;21.60;52.10
47174;DHT22;36730;49.036;9.094;2023-03-16T07:58:38;21.60;52.20
47174;DHT22;36730;49.036;9.094;2023-03-16T08:01:04;21.70;52.30
47174;DHT22;36730;49.036;9.094;2023-03-16T08:03:29;21.70;52.00
47174;DHT22;36730;49.036;9.094;2023-03-16T08:05:56;21.70;52.10
47174;DHT22;36730;49.036;9.094;2023-03-16T08:08:21;21.80;52.10
47174;DHT22;36730;49.036;9.094;2023-03-16T08:10:47;21.70;52.00
47174;DHT22;36730;49.036;9.094;2023-03-16T08:13:13;21.80;52.60
47174;DHT22;36730;49.036;9.094;2023-03-16T08:15:38;21.80;52.80
47174;DHT22;36730;49.036;9.094;2023-03-16T08:18:04;21.80;52.70
47174;DHT22;36730;49.036;9.094;2023-03-16T08:20:31;21.90;52.30
47174;DHT22;36730;49.036;9.094;2023-03-16T08:22:57;21.90;52.30
47174;DHT22;36730;49.036;9.094;2023-03-16T08:25:23;21.90;52.60
47174;DHT22;36730;49.036;9.094;2023-03-16T08:27:48;21.90;53.20
47174;DHT22;36730;49.036;9.094;2023-03-16T08:30:14;22.00;52.90
47174;DHT22;36730;49.036;9.094;2023-03-16T08:32:40;22.00;52.70
47174;DHT22;36730;49.036;9.094;2023-03-16T08:35:13;22.10;52.40
47174;DHT22;36730;49.036;9.094;2023-03-16T08:37:39;22.00;52.20
47174;DHT22;36730;49.036;9.094;2023-03-16T08:40:05;22.10;52.60
47174;DHT22;36730;49.036;9.094;2023-03-16T08:42:37;22.10;51.90
47174;DHT22;36730;49.036;9.094;2023-03-16T08:45:06;22.10;52.00
47174;DHT22;36730;49.036;9.094;2023-03-16T08:47:34;22.10;52.50
47174;DHT22;36730;49.036;9.094;2023-03-16T08:49:59;22.10;52.60
47174;DHT22;36730;49.036;9.094;2023-03-16T08:52:26;22.20;52.40
47174;DHT22;36730;49.036;9.094;2023-03-16T08:54:51;22.30;52.60
47174;DHT22;36730;49.036;9.094;2023-03-16T08:57:17;22.20;52.80
47174;DHT22;36730;49.036;9.094;2023-03-16T08:59:42;22.30;52.80
47174;DHT22;36730;49.036;9.094;2023-03-16T09:02:10;22.30;52.90
47174;DHT22;36730;49.036;9.094;2023-03-16T09:04:36;22.30;52.90
47174;DHT22;36730;49.036;9.094;2023-03-16T09:07:01;22.30;52.90
47174;DHT22;36730;49.036;9.094;2023-03-16T09:09:27;22.30;53.50
47174;DHT22;36730;49.036;9.094;2023-03-16T09:11:54;22.40;52.60
47174;DHT22;36730;49.036;9.094;2023-03-16T09:14:21;22.40;52.90
47174;DHT22;36730;49.036;9.094;2023-03-16T09:16:47;22.50;53.10
47174;DHT22;36730;49.036;9.094;2023-03-16T09:19:13;22.60;53.40
47174;DHT22;36730;49.036;9.094;2023-03-16T09:21:38;22.60;53.00
47174;DHT22;36730;49.036;9.094;2023-03-16T09:24:04;22.60;53.30
47174;DHT22;36730;49.036;9.094;2023-03-16T09:26:29;22.60;53.20
47174;DHT22;36730;49.036;9.094;2023-03-16T09:28:55;22.70;53.20
47174;DHT22;36730;49.036;9.094;2023-03-16T09:31:20;22.70;53.30
47174;DHT22;36730;49.036;9.094;2023-03-16T09:33:46;22.80;53.40
47174;DHT22;36730;49.036;9.094;2023-03-16T09:36:11;22.70;52.70
47174;DHT22;36730;49.036;9.094;2023-03-16T09:38:38;22.80;52.90
47174;DHT22;36730;49.036;9.094;2023-03-16T09:41:15;22.80;52.70
47174;DHT22;36730;49.036;9.094;2023-03-16T09:48:44;22.90;52.40
47174;DHT22;36730;49.036;9.094;2023-03-16T09:51:22;22.90;52.30
47174;DHT22;36730;49.036;9.094;2023-03-16T09:53:54;23.00;51.90
47174;DHT22;36730;49.036;9.094;2023-03-16T10:05:32;23.10;51.10
47174;DHT22;36730;49.036;9.094;2023-03-16T10:12:56;23.20;51.20
47174;DHT22;36730;49.036;9.094;2023-03-16T10:15:24;23.30;50.80
47174;DHT22;36730;49.036;9.094;2023-03-16T10:20:20;23.40;51.10
47174;DHT22;36730;49.036;9.094;2023-03-16T10:22:47;23.40;50.50
47174;DHT22;36730;49.036;9.094;2023-03-16T10:25:19;23.40;50.40
47174;DHT22;36730;49.036;9.094;2023-03-16T10:27:46;23.40;51.40
47174;DHT22;36730;49.036;9.094;2023-03-16T10:30:23;23.40;50.60
47174;DHT22;36730;49.036;9.094;2023-03-16T10:32:50;23.50;50.50
47174;DHT22;36730;49.036;9.094;2023-03-16T10:35:28;23.50;50.30
47174;DHT22;36730;49.036;9.094;2023-03-16T10:37:55;23.60;50.60
47174;DHT22;36730;49.036;9.094;2023-03-16T10:40:21;23.60;50.30
47174;DHT22;36730;49.036;9.094;2023-03-16T10:42:47;23.70;50.70
47174;DHT22;36730;49.036;9.094;2023-03-16T10:45:34;23.70;50.50
47174;DHT22;36730;49.036;9.094;2023-03-16T10:48:12;23.70;50.00
47174;DHT22;36730;49.036;9.094;2023-03-16T10:50:39;23.80;50.10
47174;DHT22;36730;49.036;9.094;2023-03-16T10:53:10;23.80;50.60
47174;DHT22;36730;49.036;9.094;2023-03-16T10:55:42;23.80;49.90
47174;DHT22;36730;49.036;9.094;2023-03-16T10:58:09;23.80;50.20
47174;DHT22;36730;49.036;9.094;2023-03-16T11:00:35;23.90;51.20
47174;DHT22;36730;49.036;9.094;2023-03-16T11:03:11;23.90;50.30
47174;DHT22;36730;49.036;9.094;2023-03-16T11:05:37;24.00;50.60
47174;DHT22;36730;49.036;9.094;2023-03-16T11:08:07;24.00;49.80
47174;DHT22;36730;49.036;9.094;2023-03-16T11:10:45;24.10;50.00
47174;DHT22;36730;49.036;9.094;2023-03-16T11:13:12;24.10;49.50
47174;DHT22;36730;49.036;9.094;2023-03-16T11:18:47;24.20;51.60
47174;DHT22;36730;49.036;9.094;2023-03-16T11:21:54;24.20;49.80
47174;DHT22;36730;49.036;9.094;2023-03-16T11:23:55;24.20;49.20
47174;DHT22;36730;49.036;9.094;2023-03-16T11:26:39;24.30;49.10
47174;DHT22;36730;49.036;9.094;2023-03-16T11:29:11;24.30;48.90
47174;DHT22;36730;49.036;9.094;2023-03-16T11:31:44;24.30;48.90
47174;DHT22;36730;49.036;9.094;2023-03-16T11:34:14;24.30;48.10
47174;DHT22;36730;49.036;9.094;2023-03-16T11:39:23;24.10;43.60
47174;DHT22;36730;49.036;9.094;2023-03-16T11:42:54;24.10;45.90
47174;DHT22;36730;49.036;9.094;2023-03-16T11:44:51;24.10;47.20
47174;DHT22;36730;49.036;9.094;2023-03-16T11:52:48;24.20;46.70
47174;DHT22;36730;49.036;9.094;2023-03-16T11:57:57;24.30;46.60
47174;DHT22;36730;49.036;9.094;2023-03-16T12:02:53;24.40;46.10
47174;DHT22;36730;49.036;9.094;2023-03-16T12:07:51;24.50;47.10
47174;DHT22;36730;49.036;9.094;2023-03-16T12:10:24;24.50;46.50
47174;DHT22;36730;49.036;9.094;2023-03-16T12:17:55;24.60;46.80
47174;DHT22;36730;49.036;9.094;2023-03-16T12:20:23;24.60;46.60
47174;DHT22;36730;49.036;9.094;2023-03-16T12:22:56;24.60;46.60
47174;DHT22;36730;49.036;9.094;2023-03-16T12:25:28;24.70;46.60
47174;DHT22;36730;49.036;9.094;2023-03-16T12:27:56;24.70;46.60
47174;DHT22;36730;49.036;9.094;2023-03-16T12:30:26;24.70;46.80
47174;DHT22;36730;49.036;9.094;2023-03-16T12:35:23;24.80;46.60
47174;DHT22;36730;49.036;9.094;2023-03-16T12:38:00;24.80;46.60
47174;DHT22;36730;49.036;9.094;2023-03-16T12:40:32;24.80;46.60
47174;DHT22;36730;49.036;9.094;2023-03-16T12:43:09;24.90;46.70
47174;DHT22;36730;49.036;9.094;2023-03-16T12:45:41;24.90;46.50
47174;DHT22;36730;49.036;9.094;2023-03-16T12:50:49;25.00;47.00
47174;DHT22;36730;49.036;9.094;2023-03-16T12:56:11;25.10;46.60
47174;DHT22;36730;49.036;9.094;2023-03-16T12:58:45;25.10;46.20
47174;DHT22;36730;49.036;9.094;2023-03-16T13:01:11;25.10;45.80
47174;DHT22;36730;49.036;9.094;2023-03-16T13:03:40;25.10;45.10
47174;DHT22;36730;49.036;9.094;2023-03-16T13:06:06;25.10;43.90
47174;DHT22;36730;49.036;9.094;2023-03-16T13:08:41;25.00;44.80
47174;DHT22;36730;49.036;9.094;2023-03-16T13:11:09;25.10;45.40
47174;DHT22;36730;49.036;9.094;2023-03-16T13:13:48;25.10;45.20
47174;DHT22;36730;49.036;9.094;2023-03-16T13:16:25;25.10;45.20
47174;DHT22;36730;49.036;9.094;2023-03-16T13:18:51;25.20;45.10
47174;DHT22;36730;49.036;9.094;2023-03-16T13:21:21;25.20;45.40
47174;DHT22;36730;49.036;9.094;2023-03-16T13:23:58;25.30;45.90
47174;DHT22;36730;49.036;9.094;2023-03-16T13:31:50;25.40;46.10
47174;DHT22;36730;49.036;9.094;2023-03-16T13:34:36;25.40;45.90
47174;DHT22;36730;49.036;9.094;2023-03-16T13:37:02;25.40;45.80
47174;DHT22;36730;49.036;9.094;2023-03-16T13:39:29;25.50;46.00
47174;DHT22;36730;49.036;9.094;2023-03-16T13:41:59;25.40;46.40
47174;DHT22;36730;49.036;9.094;2023-03-16T13:44:25;25.40;46.80
47174;DHT22;36730;49.036;9.094;2023-03-16T13:46:51;25.50;46.70
47174;DHT22;36730;49.036;9.094;2023-03-16T13:49:17;25.50;47.00
47174;DHT22;36730;49.036;9.094;2023-03-16T13:51:43;25.50;46.80
47174;DHT22;36730;49.036;9.094;2023-03-16T13:56:42;25.60;46.50
47174;DHT22;36730;49.036;9.094;2023-03-16T13:59:07;25.60;46.20
47174;DHT22;36730;49.036;9.094;2023-03-16T14:01:34;25.60;46.40
47174;DHT22;36730;49.036;9.094;2023-03-16T14:04:00;25.60;46.30
47174;DHT22;36730;49.036;9.094;2023-03-16T14:06:33;25.70;46.30
47174;DHT22;36730;49.036;9.094;2023-03-16T14:09:00;25.80;46.40
47174;DHT22;36730;49.036;9.094;2023-03-16T14:11:27;25.80;46.40
47174;DHT22;36730;49.036;9.094;2023-03-16T14:13:54;25.80;45.90
47174;DHT22;36730;49.036;9.094;2023-03-16T14:16:21;25.80;46.40
47174;DHT22;36730;49.036;9.094;2023-03-16T14:18:48;25.80;46.50
47174;DHT22;36730;49.036;9.094;2023-03-16T14:21:17;25.90;46.50
47174;DHT22;36730;49.036;9.094;2023-03-16T14:23:45;25.90;46.80
47174;DHT22;36730;49.036;9.094;2023-03-16T14:26:13;25.90;46.20
47174;DHT22;36730;49.036;9.094;2023-03-16T14:28:39;25.90;46.70
47174;DHT22;36730;49.036;9.094;2023-03-16T14:31:08;25.90;46.40
47174;DHT22;36730;49.036;9.094;2023-03-16T14:33:34;25.90;46.50
47174;DHT22;36730;49.036;9.094;2023-03-16T14:38:37;25.90;46.60
47174;DHT22;36730;49.036;9.094;2023-03-16T14:41:26;25.90;46.60
47174;DHT22;36730;49.036;9.094;2023-03-16T14:43:54;25.90;46.40
47174;DHT22;36730;49.036;9.094;2023-03-16T14:46:28;25.90;46.80
47174;DHT22;36730;49.036;9.094;2023-03-16T14:49:01;25.90;46.40
47174;DHT22;36730;49.036;9.094;2023-03-16T14:51:30;25.90;46.20
47174;DHT22;36730;49.036;9.094;2023-03-16T14:53:56;25.90;46.40
47174;DHT22;36730;49.036;9.094;2023-03-16T14:56:22;25.90;46.20
47174;DHT22;36730;49.036;9.094;2023-03-16T14:58:47;25.90;46.00
47174;DHT22;36730;49.036;9.094;2023-03-16T15:01:14;25.90;46.20
47174;DHT22;36730;49.036;9.094;2023-03-16T15:03:40;25.90;46.00
47174;DHT22;36730;49.036;9.094;2023-03-16T15:06:07;25.90;46.10
47174;DHT22;36730;49.036;9.094;2023-03-16T15:08:33;25.90;46.00
47174;DHT22;36730;49.036;9.094;2023-03-16T15:11:02;25.90;46.20
47174;DHT22;36730;49.036;9.094;2023-03-16T15:13:30;25.90;45.60
47174;DHT22;36730;49.036;9.094;2023-03-16T15:16:17;25.90;46.10
47174;DHT22;36730;49.036;9.094;2023-03-16T15:18:44;25.80;45.50
47174;DHT22;36730;49.036;9.094;2023-03-16T15:21:10;25.80;45.70
47174;DHT22;36730;49.036;9.094;2023-03-16T15:23:37;25.80;45.50
47174;DHT22;36730;49.036;9.094;2023-03-16T15:26:02;25.80;45.60
47174;DHT22;36730;49.036;9.094;2023-03-16T15:28:29;25.80;45.30
47174;DHT22;36730;49.036;9.094;2023-03-16T15:30:56;25.80;45.20
47174;DHT22;36730;49.036;9.094;2023-03-16T15:33:22;25.80;45.20
47174;DHT22;36730;49.036;9.094;2023-03-16T15:35:49;25.80;44.90
47174;DHT22;36730;49.036;9.094;2023-03-16T15:38:16;25.80;44.70
47174;DHT22;36730;49.036;9.094;2023-03-16T15:40:43;25.80;44.70
47174;DHT22;36730;49.036;9.094;2023-03-16T15:43:10;25.80;44.70
47174;DHT22;36730;49.036;9.094;2023-03-16T15:45:36;25.80;44.80
47174;DHT22;36730;49.036;9.094;2023-03-16T15:48:02;25.80;44.70
47174;DHT22;36730;49.036;9.094;2023-03-16T15:50:28;25.80;44.60
47174;DHT22;36730;49.036;9.094;2023-03-16T15:52:58;25.80;44.40
47174;DHT22;36730;49.036;9.094;2023-03-16T15:55:30;25.80;44.30
47174;DHT22;36730;49.036;9.094;2023-03-16T15:57:57;25.80;44.50
47174;DHT22;36730;49.036;9.094;2023-03-16T16:00:31;25.70;44.40
47174;DHT22;36730;49.036;9.094;2023-03-16T16:02:57;25.70;44.50
47174;DHT22;36730;49.036;9.094;2023-03-16T16:05:24;25.70;44.70
47174;DHT22;36730;49.036;9.094;2023-03-16T16:07:50;25.70;44.50
47174;DHT22;36730;49.036;9.094;2023-03-16T16:10:16;25.70;44.50
47174;DHT22;36730;49.036;9.094;2023-03-16T16:12:42;25.70;44.30
47174;DHT22;36730;49.036;9.094;2023-03-16T16:17:47;25.70;44.30
47174;DHT22;36730;49.036;9.094;2023-03-16T16:20:23;25.70;44.30
47174;DHT22;36730;49.036;9.094;2023-03-16T16:22:50;25.60;44.40
47174;DHT22;36730;49.036;9.094;2023-03-16T16:25:18;25.60;44.40
47174;DHT22;36730;49.036;9.094;2023-03-16T16:27:45;25.60;44.20
47174;DHT22;36730;49.036;9.094;2023-03-16T16:30:32;25.60;44.20
47174;DHT22;36730;49.036;9.094;2023-03-16T16:33:01;25.60;44.20
47174;DHT22;36730;49.036;9.094;2023-03-16T16:35:27;25.50;44.10
47174;DHT22;36730;49.036;9.094;2023-03-16T16:37:53;25.60;44.20
47174;DHT22;36730;49.036;9.094;2023-03-16T16:40:22;25.60;44.20
47174;DHT22;36730;49.036;9.094;2023-03-16T16:42:50;25.60;44.40
47174;DHT22;36730;49.036;9.094;2023-03-16T16:45:20;25.50;44.40
47174;DHT22;36730;49.036;9.094;2023-03-16T16:47:47;25.50;44.50